Granite Canon, Wyoming
Current Conditions -  °F | °C
As of 4:56 AM on Saturday 20 Dec 2014 (Local Time) from KFEW Reporting Station
Broken Clouds Broken Clouds  
Wind Chill: 24°   Ceiling: 18000
Heat Index: 35°   Visibility: 10mi
Dew Point: 17°   Wind: 22mph
Humidity: 48%   Direction: 280°W
Pressure: 29.89"   Gusts: 35mph
Location:  41.1°N, 105.14°W
Report Text: KFEW 201156Z AUTO 28019G30KT 10SM SCT120 BKN180 02/M08 A2989 RMK AO2 PK WND 29030/04 SLP135 T00181082 10023 21077 55007 $
Loading
Personal Weather Stations






























Interactive Weather Map New forecast layout! Learn more

10-Day Weather Forecast

Advertisements
Track Severe Weather on mobile